TimeCDT,TemperatureF,Dew PointF,Humidity,Sea Level PressureIn,VisibilityMPH,Wind Direction,Wind SpeedMPH,Gust SpeedMPH,PrecipitationIn,Events,Conditions,WindDirDegrees,DateUTC
12:54 AM,64.9,55.0,70,29.78,10.0,SSE,17.3,25.3,N/A,,Clear,160,2013-10-11 05:54:00
1:54 AM,64.0,55.0,73,29.79,10.0,South,16.1,-,N/A,,Clear,180,2013-10-11 06:54:00
2:54 AM,64.0,55.0,73,29.77,10.0,South,17.3,23.0,N/A,,Clear,170,2013-10-11 07:54:00
3:54 AM,64.9,55.9,73,29.75,10.0,SSE,17.3,-,N/A,,Partly Cloudy,160,2013-10-11 08:54:00
4:54 AM,64.9,57.0,75,29.73,10.0,South,20.7,29.9,0.00,,Overcast,170,2013-10-11 09:54:00
5:54 AM,66.0,57.0,73,29.73,10.0,South,18.4,29.9,0.00,,Clear,170,2013-10-11 10:54:00
6:54 AM,64.9,57.0,75,29.73,10.0,South,16.1,-,N/A,,Clear,180,2013-10-11 11:54:00
7:54 AM,64.9,57.9,78,29.72,10.0,South,19.6,26.5,N/A,,Clear,170,2013-10-11 12:54:00
8:54 AM,66.0,59.0,78,29.73,10.0,South,20.7,31.1,N/A,,Clear,180,2013-10-11 13:54:00
9:54 AM,69.1,61.0,75,29.74,10.0,South,13.8,25.3,N/A,,Partly Cloudy,190,2013-10-11 14:54:00
10:38 AM,71.6,60.8,69,29.77,10.0,SSW,18.4,25.3,N/A,,Mostly Cloudy,200,2013-10-11 15:38:00
11:54 AM,75.0,60.1,60,29.74,10.0,SSW,18.4,28.8,N/A,,Scattered Clouds,210,2013-10-11 16:54:00
12:54 PM,77.0,60.1,56,29.73,10.0,SSW,16.1,26.5,N/A,,Partly Cloudy,200,2013-10-11 17:54:00
1:54 PM,81.0,59.0,47,29.71,10.0,SSW,18.4,24.2,N/A,,Clear,210,2013-10-11 18:54:00
2:54 PM,82.9,52.0,34,29.69,10.0,SSW,19.6,28.8,N/A,,Clear,200,2013-10-11 19:54:00
3:54 PM,82.9,42.1,24,29.69,10.0,SW,17.3,27.6,N/A,,Clear,220,2013-10-11 20:54:00
5:54 PM,79.0,33.1,19,29.73,10.0,SW,12.7,-,N/A,,Clear,220,2013-10-11 22:54:00
6:54 PM,73.0,34.0,24,29.76,10.0,WSW,5.8,-,N/A,,Clear,240,2013-10-11 23:54:00
7:54 PM,70.0,36.0,29,29.78,10.0,West,4.6,-,N/A,,Clear,260,2013-10-12 00:54:00
8:54 PM,64.9,39.0,39,29.81,10.0,NW,6.9,-,N/A,,Clear,310,2013-10-12 01:54:00
9:54 PM,62.1,39.0,43,29.84,10.0,NW,6.9,-,N/A,,Clear,310,2013-10-12 02:54:00
10:54 PM,62.1,44.1,52,29.86,10.0,NNW,13.8,-,N/A,,Clear,340,2013-10-12 03:54:00
11:54 PM,59.0,45.0,60,29.89,10.0,North,9.2,-,N/A,,Clear,350,2013-10-12 04:54:00